sensor_id;sensor_type;location;lat;lon;timestamp;temperature;humidity
47482;DHT22;33219;47.410;9.730;2023-07-13T00:02:01;16.80;99.90
47482;DHT22;33219;47.410;9.730;2023-07-13T00:04:28;16.80;99.90
47482;DHT22;33219;47.410;9.730;2023-07-13T00:06:56;16.70;99.90
47482;DHT22;33219;47.410;9.730;2023-07-13T00:09:24;16.80;99.90
47482;DHT22;33219;47.410;9.730;2023-07-13T00:11:53;16.80;99.90
47482;DHT22;33219;47.410;9.730;2023-07-13T00:14:21;16.80;99.90
47482;DHT22;33219;47.410;9.730;2023-07-13T00:16:49;16.70;99.90
47482;DHT22;33219;47.410;9.730;2023-07-13T00:19:17;16.80;99.90
47482;DHT22;33219;47.410;9.730;2023-07-13T00:21:44;16.70;99.90
47482;DHT22;33219;47.410;9.730;2023-07-13T00:24:14;16.80;99.90
47482;DHT22;33219;47.410;9.730;2023-07-13T00:26:44;16.80;99.90
47482;DHT22;33219;47.410;9.730;2023-07-13T00:29:12;16.80;99.90
47482;DHT22;33219;47.410;9.730;2023-07-13T00:31:40;16.80;99.90
47482;DHT22;33219;47.410;9.730;2023-07-13T00:34:08;16.90;99.90
47482;DHT22;33219;47.410;9.730;2023-07-13T00:36:36;16.80;99.90
47482;DHT22;33219;47.410;9.730;2023-07-13T00:39:04;16.90;99.90
47482;DHT22;33219;47.410;9.730;2023-07-13T00:41:32;16.90;99.90
47482;DHT22;33219;47.410;9.730;2023-07-13T00:44:00;16.90;99.90
47482;DHT22;33219;47.410;9.730;2023-07-13T00:46:29;16.90;99.90
47482;DHT22;33219;47.410;9.730;2023-07-13T00:49:00;16.90;99.90
47482;DHT22;33219;47.410;9.730;2023-07-13T00:51:37;16.80;99.90
47482;DHT22;33219;47.410;9.730;2023-07-13T00:54:04;16.80;99.90
47482;DHT22;33219;47.410;9.730;2023-07-13T00:56:33;16.70;99.90
47482;DHT22;33219;47.410;9.730;2023-07-13T00:59:03;16.70;99.90
47482;DHT22;33219;47.410;9.730;2023-07-13T01:01:32;16.70;99.90
47482;DHT22;33219;47.410;9.730;2023-07-13T01:04:00;16.60;99.90
47482;DHT22;33219;47.410;9.730;2023-07-13T01:06:27;16.60;99.90
47482;DHT22;33219;47.410;9.730;2023-07-13T01:08:56;16.60;99.90
47482;DHT22;33219;47.410;9.730;2023-07-13T01:11:25;16.60;99.90
47482;DHT22;33219;47.410;9.730;2023-07-13T01:13:53;16.60;99.90
47482;DHT22;33219;47.410;9.730;2023-07-13T01:16:28;16.60;99.90
47482;DHT22;33219;47.410;9.730;2023-07-13T01:18:55;16.50;99.90
47482;DHT22;33219;47.410;9.730;2023-07-13T01:21:28;16.50;99.90
47482;DHT22;33219;47.410;9.730;2023-07-13T01:23:56;16.50;99.90
47482;DHT22;33219;47.410;9.730;2023-07-13T01:26:24;16.50;99.90
47482;DHT22;33219;47.410;9.730;2023-07-13T01:28:52;16.50;99.90
47482;DHT22;33219;47.410;9.730;2023-07-13T01:31:20;16.50;99.90
47482;DHT22;33219;47.410;9.730;2023-07-13T01:33:47;16.50;99.90
47482;DHT22;33219;47.410;9.730;2023-07-13T01:36:15;16.50;99.90
47482;DHT22;33219;47.410;9.730;2023-07-13T01:41:43;16.40;99.90
47482;DHT22;33219;47.410;9.730;2023-07-13T01:44:10;16.40;99.90
47482;DHT22;33219;47.410;9.730;2023-07-13T01:46:38;16.30;99.90
47482;DHT22;33219;47.410;9.730;2023-07-13T01:49:05;16.30;99.90
47482;DHT22;33219;47.410;9.730;2023-07-13T01:51:33;16.30;99.90
47482;DHT22;33219;47.410;9.730;2023-07-13T01:54:01;16.40;99.90
47482;DHT22;33219;47.410;9.730;2023-07-13T01:56:28;16.30;99.90
47482;DHT22;33219;47.410;9.730;2023-07-13T01:58:56;16.30;99.90
47482;DHT22;33219;47.410;9.730;2023-07-13T02:01:24;16.30;99.90
47482;DHT22;33219;47.410;9.730;2023-07-13T02:03:51;16.40;99.90
47482;DHT22;33219;47.410;9.730;2023-07-13T02:06:19;16.40;99.90
47482;DHT22;33219;47.410;9.730;2023-07-13T02:08:46;16.40;99.90
47482;DHT22;33219;47.410;9.730;2023-07-13T02:11:14;16.40;99.90
47482;DHT22;33219;47.410;9.730;2023-07-13T02:13:41;16.30;99.90
47482;DHT22;33219;47.410;9.730;2023-07-13T02:16:09;16.30;99.90
47482;DHT22;33219;47.410;9.730;2023-07-13T02:18:37;16.20;99.90
47482;DHT22;33219;47.410;9.730;2023-07-13T02:21:04;16.10;99.90
47482;DHT22;33219;47.410;9.730;2023-07-13T02:23:32;16.20;99.90
47482;DHT22;33219;47.410;9.730;2023-07-13T02:26:01;16.20;99.90
47482;DHT22;33219;47.410;9.730;2023-07-13T02:28:29;16.20;99.90
47482;DHT22;33219;47.410;9.730;2023-07-13T02:31:04;16.10;99.90
47482;DHT22;33219;47.410;9.730;2023-07-13T02:33:27;16.10;99.90
47482;DHT22;33219;47.410;9.730;2023-07-13T02:35:55;16.10;99.90
47482;DHT22;33219;47.410;9.730;2023-07-13T02:38:22;16.10;99.90
47482;DHT22;33219;47.410;9.730;2023-07-13T02:40:50;16.00;99.90
47482;DHT22;33219;47.410;9.730;2023-07-13T02:43:18;16.10;99.90
47482;DHT22;33219;47.410;9.730;2023-07-13T02:45:46;16.00;99.90
47482;DHT22;33219;47.410;9.730;2023-07-13T02:48:14;16.00;99.90
47482;DHT22;33219;47.410;9.730;2023-07-13T02:50:44;15.90;99.90
47482;DHT22;33219;47.410;9.730;2023-07-13T02:53:12;15.90;99.90
47482;DHT22;33219;47.410;9.730;2023-07-13T02:55:39;15.90;99.90
47482;DHT22;33219;47.410;9.730;2023-07-13T02:58:07;15.90;99.90
47482;DHT22;33219;47.410;9.730;2023-07-13T03:00:37;15.90;99.90
47482;DHT22;33219;47.410;9.730;2023-07-13T03:03:06;15.90;99.90
47482;DHT22;33219;47.410;9.730;2023-07-13T03:05:34;15.90;99.90
47482;DHT22;33219;47.410;9.730;2023-07-13T03:08:01;15.90;99.90
47482;DHT22;33219;47.410;9.730;2023-07-13T03:10:30;16.00;99.90
47482;DHT22;33219;47.410;9.730;2023-07-13T03:12:57;16.00;99.90
47482;DHT22;33219;47.410;9.730;2023-07-13T03:15:25;16.10;99.90
47482;DHT22;33219;47.410;9.730;2023-07-13T03:17:53;16.00;99.90
47482;DHT22;33219;47.410;9.730;2023-07-13T03:20:21;16.10;99.90
47482;DHT22;33219;47.410;9.730;2023-07-13T03:22:49;16.00;99.90
47482;DHT22;33219;47.410;9.730;2023-07-13T03:25:16;15.90;99.90
47482;DHT22;33219;47.410;9.730;2023-07-13T03:27:44;15.90;99.90
47482;DHT22;33219;47.410;9.730;2023-07-13T03:30:12;15.90;99.90
47482;DHT22;33219;47.410;9.730;2023-07-13T03:32:39;15.80;99.90
47482;DHT22;33219;47.410;9.730;2023-07-13T03:35:09;15.80;99.90
47482;DHT22;33219;47.410;9.730;2023-07-13T03:37:36;15.80;99.90
47482;DHT22;33219;47.410;9.730;2023-07-13T03:40:06;15.90;99.90
47482;DHT22;33219;47.410;9.730;2023-07-13T03:42:35;15.90;99.90
47482;DHT22;33219;47.410;9.730;2023-07-13T03:45:03;15.90;99.90
47482;DHT22;33219;47.410;9.730;2023-07-13T03:47:31;15.90;99.90
47482;DHT22;33219;47.410;9.730;2023-07-13T03:49:59;16.00;99.90
47482;DHT22;33219;47.410;9.730;2023-07-13T03:52:26;16.00;99.90
47482;DHT22;33219;47.410;9.730;2023-07-13T03:54:54;16.00;99.90
47482;DHT22;33219;47.410;9.730;2023-07-13T03:57:22;16.00;99.90
47482;DHT22;33219;47.410;9.730;2023-07-13T03:59:50;16.00;99.90
47482;DHT22;33219;47.410;9.730;2023-07-13T04:02:17;16.10;99.90
47482;DHT22;33219;47.410;9.730;2023-07-13T04:04:45;16.10;99.90
47482;DHT22;33219;47.410;9.730;2023-07-13T04:07:13;16.10;99.90
47482;DHT22;33219;47.410;9.730;2023-07-13T04:09:40;16.10;99.90
47482;DHT22;33219;47.410;9.730;2023-07-13T04:12:08;16.20;99.90
47482;DHT22;33219;47.410;9.730;2023-07-13T04:14:35;16.20;99.90
47482;DHT22;33219;47.410;9.730;2023-07-13T04:17:03;16.30;99.90
47482;DHT22;33219;47.410;9.730;2023-07-13T04:19:31;16.30;99.90
47482;DHT22;33219;47.410;9.730;2023-07-13T04:21:58;16.30;99.90
47482;DHT22;33219;47.410;9.730;2023-07-13T04:24:26;16.40;99.90
47482;DHT22;33219;47.410;9.730;2023-07-13T04:26:53;16.40;99.90
47482;DHT22;33219;47.410;9.730;2023-07-13T04:29:23;16.40;99.90
47482;DHT22;33219;47.410;9.730;2023-07-13T04:31:50;16.40;99.90
47482;DHT22;33219;47.410;9.730;2023-07-13T04:34:18;16.40;99.90
47482;DHT22;33219;47.410;9.730;2023-07-13T04:36:45;16.40;99.90
47482;DHT22;33219;47.410;9.730;2023-07-13T04:39:13;16.50;99.90
47482;DHT22;33219;47.410;9.730;2023-07-13T04:41:40;16.50;99.90
47482;DHT22;33219;47.410;9.730;2023-07-13T04:44:08;16.50;99.90
47482;DHT22;33219;47.410;9.730;2023-07-13T04:46:36;16.50;99.90
47482;DHT22;33219;47.410;9.730;2023-07-13T04:49:04;16.50;99.90
47482;DHT22;33219;47.410;9.730;2023-07-13T04:51:31;16.50;99.90
47482;DHT22;33219;47.410;9.730;2023-07-13T04:53:59;16.50;99.90
47482;DHT22;33219;47.410;9.730;2023-07-13T04:56:26;16.50;99.90
47482;DHT22;33219;47.410;9.730;2023-07-13T04:58:54;16.50;99.90
47482;DHT22;33219;47.410;9.730;2023-07-13T05:01:22;16.50;99.90
47482;DHT22;33219;47.410;9.730;2023-07-13T05:03:49;16.50;99.90
47482;DHT22;33219;47.410;9.730;2023-07-13T05:06:17;16.60;99.90
47482;DHT22;33219;47.410;9.730;2023-07-13T05:08:44;16.60;99.90
47482;DHT22;33219;47.410;9.730;2023-07-13T05:11:12;16.60;99.90
47482;DHT22;33219;47.410;9.730;2023-07-13T05:13:40;16.70;99.90
47482;DHT22;33219;47.410;9.730;2023-07-13T05:16:07;16.70;99.90
47482;DHT22;33219;47.410;9.730;2023-07-13T05:18:35;16.80;99.90
47482;DHT22;33219;47.410;9.730;2023-07-13T05:21:05;16.80;99.90
47482;DHT22;33219;47.410;9.730;2023-07-13T05:23:35;16.80;99.90
47482;DHT22;33219;47.410;9.730;2023-07-13T05:26:04;16.80;99.90
47482;DHT22;33219;47.410;9.730;2023-07-13T05:28:31;16.80;99.90
47482;DHT22;33219;47.410;9.730;2023-07-13T05:30:59;16.80;99.90
47482;DHT22;33219;47.410;9.730;2023-07-13T05:33:27;16.80;99.90
47482;DHT22;33219;47.410;9.730;2023-07-13T05:35:55;16.80;99.90
47482;DHT22;33219;47.410;9.730;2023-07-13T05:38:22;16.70;99.90
47482;DHT22;33219;47.410;9.730;2023-07-13T05:40:50;16.70;99.90
47482;DHT22;33219;47.410;9.730;2023-07-13T05:43:18;16.70;99.90
47482;DHT22;33219;47.410;9.730;2023-07-13T05:45:45;16.70;99.90
47482;DHT22;33219;47.410;9.730;2023-07-13T05:48:13;16.80;99.90
47482;DHT22;33219;47.410;9.730;2023-07-13T05:50:41;16.70;99.90
47482;DHT22;33219;47.410;9.730;2023-07-13T05:53:08;16.70;99.90
47482;DHT22;33219;47.410;9.730;2023-07-13T05:55:36;16.70;99.90
47482;DHT22;33219;47.410;9.730;2023-07-13T05:58:05;16.70;99.90
47482;DHT22;33219;47.410;9.730;2023-07-13T06:00:32;16.80;99.90
47482;DHT22;33219;47.410;9.730;2023-07-13T06:03:00;16.90;99.90
47482;DHT22;33219;47.410;9.730;2023-07-13T06:05:27;16.90;99.90
47482;DHT22;33219;47.410;9.730;2023-07-13T06:07:55;16.90;99.90
47482;DHT22;33219;47.410;9.730;2023-07-13T06:10:23;16.90;99.90
47482;DHT22;33219;47.410;9.730;2023-07-13T06:12:50;16.90;99.90
47482;DHT22;33219;47.410;9.730;2023-07-13T06:15:18;16.90;99.90
47482;DHT22;33219;47.410;9.730;2023-07-13T06:17:46;17.00;99.90
47482;DHT22;33219;47.410;9.730;2023-07-13T06:20:13;16.90;99.90
47482;DHT22;33219;47.410;9.730;2023-07-13T06:22:41;17.00;99.90
47482;DHT22;33219;47.410;9.730;2023-07-13T06:25:09;16.90;99.90
47482;DHT22;33219;47.410;9.730;2023-07-13T06:27:37;16.90;99.90
47482;DHT22;33219;47.410;9.730;2023-07-13T06:30:05;16.90;99.90
47482;DHT22;33219;47.410;9.730;2023-07-13T06:32:33;16.90;99.90
47482;DHT22;33219;47.410;9.730;2023-07-13T06:35:00;16.90;99.90
47482;DHT22;33219;47.410;9.730;2023-07-13T06:37:28;16.80;99.90
47482;DHT22;33219;47.410;9.730;2023-07-13T06:39:55;16.70;99.90
47482;DHT22;33219;47.410;9.730;2023-07-13T06:42:23;16.80;99.90
47482;DHT22;33219;47.410;9.730;2023-07-13T06:44:50;16.80;99.90
47482;DHT22;33219;47.410;9.730;2023-07-13T06:47:18;16.80;99.90
47482;DHT22;33219;47.410;9.730;2023-07-13T06:49:46;16.80;99.90
47482;DHT22;33219;47.410;9.730;2023-07-13T06:52:13;16.80;99.90
47482;DHT22;33219;47.410;9.730;2023-07-13T06:54:41;16.90;99.90
47482;DHT22;33219;47.410;9.730;2023-07-13T06:57:08;16.90;99.90
47482;DHT22;33219;47.410;9.730;2023-07-13T06:59:41;16.90;99.90
47482;DHT22;33219;47.410;9.730;2023-07-13T07:02:10;16.90;99.90
47482;DHT22;33219;47.410;9.730;2023-07-13T07:04:38;17.00;99.90
47482;DHT22;33219;47.410;9.730;2023-07-13T07:07:06;17.10;99.90
47482;DHT22;33219;47.410;9.730;2023-07-13T07:09:33;17.10;99.90
47482;DHT22;33219;47.410;9.730;2023-07-13T07:12:02;17.10;99.90
47482;DHT22;33219;47.410;9.730;2023-07-13T07:14:29;17.00;99.90
47482;DHT22;33219;47.410;9.730;2023-07-13T07:16:57;16.90;99.90
47482;DHT22;33219;47.410;9.730;2023-07-13T07:19:25;17.00;99.90
47482;DHT22;33219;47.410;9.730;2023-07-13T07:21:52;17.00;99.90
47482;DHT22;33219;47.410;9.730;2023-07-13T07:24:20;17.10;99.90
47482;DHT22;33219;47.410;9.730;2023-07-13T07:26:48;17.10;99.90
47482;DHT22;33219;47.410;9.730;2023-07-13T07:29:15;17.20;99.90
47482;DHT22;33219;47.410;9.730;2023-07-13T07:31:43;17.20;99.90
47482;DHT22;33219;47.410;9.730;2023-07-13T07:34:10;17.20;99.90
47482;DHT22;33219;47.410;9.730;2023-07-13T07:36:38;17.20;99.90
47482;DHT22;33219;47.410;9.730;2023-07-13T07:39:06;17.30;99.90
47482;DHT22;33219;47.410;9.730;2023-07-13T07:41:33;17.30;99.90
47482;DHT22;33219;47.410;9.730;2023-07-13T07:44:01;17.30;99.90
47482;DHT22;33219;47.410;9.730;2023-07-13T07:46:29;17.40;99.90
47482;DHT22;33219;47.410;9.730;2023-07-13T07:48:57;17.50;99.90
47482;DHT22;33219;47.410;9.730;2023-07-13T07:51:25;17.50;99.90
47482;DHT22;33219;47.410;9.730;2023-07-13T07:53:52;17.50;99.90
47482;DHT22;33219;47.410;9.730;2023-07-13T07:56:21;17.40;99.90
47482;DHT22;33219;47.410;9.730;2023-07-13T07:58:48;17.40;99.90
47482;DHT22;33219;47.410;9.730;2023-07-13T08:01:16;17.40;99.90
47482;DHT22;33219;47.410;9.730;2023-07-13T08:03:44;17.40;99.90
47482;DHT22;33219;47.410;9.730;2023-07-13T08:06:11;17.40;99.90
47482;DHT22;33219;47.410;9.730;2023-07-13T08:08:39;17.40;99.90
47482;DHT22;33219;47.410;9.730;2023-07-13T08:11:08;17.50;99.90
47482;DHT22;33219;47.410;9.730;2023-07-13T08:13:37;17.70;99.90
47482;DHT22;33219;47.410;9.730;2023-07-13T08:16:05;17.70;99.90
47482;DHT22;33219;47.410;9.730;2023-07-13T08:18:33;17.80;99.90
47482;DHT22;33219;47.410;9.730;2023-07-13T08:21:06;17.80;99.90
47482;DHT22;33219;47.410;9.730;2023-07-13T08:23:34;17.90;99.90
47482;DHT22;33219;47.410;9.730;2023-07-13T08:26:02;17.90;99.90
47482;DHT22;33219;47.410;9.730;2023-07-13T08:28:31;17.90;99.90
47482;DHT22;33219;47.410;9.730;2023-07-13T08:31:07;17.90;99.90
47482;DHT22;33219;47.410;9.730;2023-07-13T08:33:32;18.00;99.90
47482;DHT22;33219;47.410;9.730;2023-07-13T08:35:59;18.10;99.90
47482;DHT22;33219;47.410;9.730;2023-07-13T08:38:27;18.10;99.90
47482;DHT22;33219;47.410;9.730;2023-07-13T08:40:56;18.40;99.90
47482;DHT22;33219;47.410;9.730;2023-07-13T08:43:29;18.60;99.90
47482;DHT22;33219;47.410;9.730;2023-07-13T08:46:18;18.90;99.90
47482;DHT22;33219;47.410;9.730;2023-07-13T08:48:57;19.20;99.90
47482;DHT22;33219;47.410;9.730;2023-07-13T08:51:28;19.20;99.90
47482;DHT22;33219;47.410;9.730;2023-07-13T08:54:04;19.50;99.90
47482;DHT22;33219;47.410;9.730;2023-07-13T08:56:30;19.60;99.90
47482;DHT22;33219;47.410;9.730;2023-07-13T08:59:12;19.60;99.90
47482;DHT22;33219;47.410;9.730;2023-07-13T09:02:03;19.70;99.90
47482;DHT22;33219;47.410;9.730;2023-07-13T09:04:33;19.60;99.90
47482;DHT22;33219;47.410;9.730;2023-07-13T09:07:19;19.60;99.90
47482;DHT22;33219;47.410;9.730;2023-07-13T09:15:31;20.00;99.90
47482;DHT22;33219;47.410;9.730;2023-07-13T09:18:05;20.30;99.90
47482;DHT22;33219;47.410;9.730;2023-07-13T09:20:34;20.60;99.90
47482;DHT22;33219;47.410;9.730;2023-07-13T09:23:05;21.20;99.90
47482;DHT22;33219;47.410;9.730;2023-07-13T09:25:35;21.50;99.90
47482;DHT22;33219;47.410;9.730;2023-07-13T09:33:27;21.40;99.90
47482;DHT22;33219;47.410;9.730;2023-07-13T09:35:57;21.20;99.90
47482;DHT22;33219;47.410;9.730;2023-07-13T09:38:29;21.00;99.90
47482;DHT22;33219;47.410;9.730;2023-07-13T09:41:15;20.80;99.90
47482;DHT22;33219;47.410;9.730;2023-07-13T09:46:27;20.50;99.90
47482;DHT22;33219;47.410;9.730;2023-07-13T09:48:56;20.60;99.90
47482;DHT22;33219;47.410;9.730;2023-07-13T09:51:23;20.70;99.90
47482;DHT22;33219;47.410;9.730;2023-07-13T09:53:51;20.90;99.90
47482;DHT22;33219;47.410;9.730;2023-07-13T09:56:23;20.80;99.90
47482;DHT22;33219;47.410;9.730;2023-07-13T09:58:52;20.90;99.90
47482;DHT22;33219;47.410;9.730;2023-07-13T10:01:36;21.40;99.90
47482;DHT22;33219;47.410;9.730;2023-07-13T10:04:19;21.70;99.90
47482;DHT22;33219;47.410;9.730;2023-07-13T10:06:47;22.20;99.90
47482;DHT22;33219;47.410;9.730;2023-07-13T10:09:17;22.80;99.90
47482;DHT22;33219;47.410;9.730;2023-07-13T10:11:46;23.50;99.90
47482;DHT22;33219;47.410;9.730;2023-07-13T10:14:21;23.80;99.90
47482;DHT22;33219;47.410;9.730;2023-07-13T10:17:00;24.10;99.90
47482;DHT22;33219;47.410;9.730;2023-07-13T10:19:31;24.40;99.90
47482;DHT22;33219;47.410;9.730;2023-07-13T10:22:12;24.60;99.90
47482;DHT22;33219;47.410;9.730;2023-07-13T10:24:32;24.60;99.90
47482;DHT22;33219;47.410;9.730;2023-07-13T10:27:10;24.60;99.90
47482;DHT22;33219;47.410;9.730;2023-07-13T10:29:48;24.50;99.90
47482;DHT22;33219;47.410;9.730;2023-07-13T10:32:19;24.50;99.90
47482;DHT22;33219;47.410;9.730;2023-07-13T10:34:49;24.50;99.90
47482;DHT22;33219;47.410;9.730;2023-07-13T10:37:47;24.30;99.90
47482;DHT22;33219;47.410;9.730;2023-07-13T10:40:16;24.40;99.90
47482;DHT22;33219;47.410;9.730;2023-07-13T10:42:45;24.60;99.90
47482;DHT22;33219;47.410;9.730;2023-07-13T10:45:18;24.50;99.90
47482;DHT22;33219;47.410;9.730;2023-07-13T10:47:47;24.30;99.90
47482;DHT22;33219;47.410;9.730;2023-07-13T10:50:19;23.70;99.90
47482;DHT22;33219;47.410;9.730;2023-07-13T10:52:51;23.40;99.90
47482;DHT22;33219;47.410;9.730;2023-07-13T10:58:12;23.40;99.90
47482;DHT22;33219;47.410;9.730;2023-07-13T11:00:49;23.30;99.90
47482;DHT22;33219;47.410;9.730;2023-07-13T11:03:18;23.00;99.90
47482;DHT22;33219;47.410;9.730;2023-07-13T11:05:52;23.50;99.90
47482;DHT22;33219;47.410;9.730;2023-07-13T11:08:35;23.50;99.90
47482;DHT22;33219;47.410;9.730;2023-07-13T11:11:05;23.30;99.90
47482;DHT22;33219;47.410;9.730;2023-07-13T11:16:26;23.30;99.90
47482;DHT22;33219;47.410;9.730;2023-07-13T11:21:33;23.50;99.90
47482;DHT22;33219;47.410;9.730;2023-07-13T11:24:19;23.40;99.90
47482;DHT22;33219;47.410;9.730;2023-07-13T11:29:37;23.40;99.90
47482;DHT22;33219;47.410;9.730;2023-07-13T11:32:25;23.40;99.90
47482;DHT22;33219;47.410;9.730;2023-07-13T11:34:38;23.30;99.90
47482;DHT22;33219;47.410;9.730;2023-07-13T11:37:15;23.20;99.90
47482;DHT22;33219;47.410;9.730;2023-07-13T11:39:41;23.10;99.90
47482;DHT22;33219;47.410;9.730;2023-07-13T11:42:14;23.10;99.90
47482;DHT22;33219;47.410;9.730;2023-07-13T11:44:48;23.20;99.90
47482;DHT22;33219;47.410;9.730;2023-07-13T11:47:18;23.40;99.90
47482;DHT22;33219;47.410;9.730;2023-07-13T11:49:50;23.50;99.90
47482;DHT22;33219;47.410;9.730;2023-07-13T11:52:21;23.60;99.90
47482;DHT22;33219;47.410;9.730;2023-07-13T11:54:55;23.50;99.90
47482;DHT22;33219;47.410;9.730;2023-07-13T11:57:33;23.60;99.90
47482;DHT22;33219;47.410;9.730;2023-07-13T11:59:54;23.40;99.90
47482;DHT22;33219;47.410;9.730;2023-07-13T12:02:31;23.30;99.90
47482;DHT22;33219;47.410;9.730;2023-07-13T12:05:00;23.20;99.90
47482;DHT22;33219;47.410;9.730;2023-07-13T12:07:32;23.20;99.90
47482;DHT22;33219;47.410;9.730;2023-07-13T12:12:40;23.30;99.90
47482;DHT22;33219;47.410;9.730;2023-07-13T12:15:08;23.30;99.90
47482;DHT22;33219;47.410;9.730;2023-07-13T12:17:36;23.40;99.90
47482;DHT22;33219;47.410;9.730;2023-07-13T12:20:14;23.70;99.90
47482;DHT22;33219;47.410;9.730;2023-07-13T12:22:34;23.70;99.90
47482;DHT22;33219;47.410;9.730;2023-07-13T12:25:02;23.70;99.90
47482;DHT22;33219;47.410;9.730;2023-07-13T12:27:31;23.80;99.90
47482;DHT22;33219;47.410;9.730;2023-07-13T12:30:02;23.60;99.90
47482;DHT22;33219;47.410;9.730;2023-07-13T12:32:32;23.60;99.90
47482;DHT22;33219;47.410;9.730;2023-07-13T12:35:12;23.80;99.90
47482;DHT22;33219;47.410;9.730;2023-07-13T12:37:34;24.10;99.90
47482;DHT22;33219;47.410;9.730;2023-07-13T12:40:04;24.00;99.90
47482;DHT22;33219;47.410;9.730;2023-07-13T12:42:33;23.90;99.90
47482;DHT22;33219;47.410;9.730;2023-07-13T12:45:19;23.90;99.90
47482;DHT22;33219;47.410;9.730;2023-07-13T12:47:49;23.90;99.90
47482;DHT22;33219;47.410;9.730;2023-07-13T12:50:19;23.70;99.90
47482;DHT22;33219;47.410;9.730;2023-07-13T12:52:56;23.80;99.90
47482;DHT22;33219;47.410;9.730;2023-07-13T12:55:24;23.60;99.90
47482;DHT22;33219;47.410;9.730;2023-07-13T12:57:54;23.40;99.90
47482;DHT22;33219;47.410;9.730;2023-07-13T13:02:58;23.30;99.90
47482;DHT22;33219;47.410;9.730;2023-07-13T13:05:33;23.20;99.90
47482;DHT22;33219;47.410;9.730;2023-07-13T13:07:58;23.30;99.90
47482;DHT22;33219;47.410;9.730;2023-07-13T13:10:26;23.40;99.90
47482;DHT22;33219;47.410;9.730;2023-07-13T13:12:53;23.30;99.60
47482;DHT22;33219;47.410;9.730;2023-07-13T13:15:21;23.60;99.30
47482;DHT22;33219;47.410;9.730;2023-07-13T13:17:50;23.70;98.60
47482;DHT22;33219;47.410;9.730;2023-07-13T13:20:20;23.80;98.90
47482;DHT22;33219;47.410;9.730;2023-07-13T13:22:48;24.00;98.20
47482;DHT22;33219;47.410;9.730;2023-07-13T13:25:15;23.80;99.40
47482;DHT22;33219;47.410;9.730;2023-07-13T13:27:44;23.60;99.60
47482;DHT22;33219;47.410;9.730;2023-07-13T13:30:14;23.40;99.90
47482;DHT22;33219;47.410;9.730;2023-07-13T13:32:47;23.40;99.20
47482;DHT22;33219;47.410;9.730;2023-07-13T13:35:16;23.50;99.10
47482;DHT22;33219;47.410;9.730;2023-07-13T13:37:45;23.50;99.90
47482;DHT22;33219;47.410;9.730;2023-07-13T13:40:19;23.70;99.90
47482;DHT22;33219;47.410;9.730;2023-07-13T13:42:47;23.90;99.30
47482;DHT22;33219;47.410;9.730;2023-07-13T13:45:15;24.00;99.30
47482;DHT22;33219;47.410;9.730;2023-07-13T13:47:44;24.20;98.20
47482;DHT22;33219;47.410;9.730;2023-07-13T13:50:17;24.10;98.70
47482;DHT22;33219;47.410;9.730;2023-07-13T13:52:45;24.20;98.60
47482;DHT22;33219;47.410;9.730;2023-07-13T13:55:16;24.30;97.70
47482;DHT22;33219;47.410;9.730;2023-07-13T13:57:48;24.50;97.20
47482;DHT22;33219;47.410;9.730;2023-07-13T14:00:17;24.50;98.00
47482;DHT22;33219;47.410;9.730;2023-07-13T14:02:47;24.60;97.60
47482;DHT22;33219;47.410;9.730;2023-07-13T14:05:22;24.50;97.10
47482;DHT22;33219;47.410;9.730;2023-07-13T14:07:47;24.50;97.40
47482;DHT22;33219;47.410;9.730;2023-07-13T14:10:17;24.60;97.20
47482;DHT22;33219;47.410;9.730;2023-07-13T14:12:50;24.50;98.00
47482;DHT22;33219;47.410;9.730;2023-07-13T14:15:27;24.50;97.90
47482;DHT22;33219;47.410;9.730;2023-07-13T14:17:54;24.50;98.20
47482;DHT22;33219;47.410;9.730;2023-07-13T14:20:22;24.70;96.80
47482;DHT22;33219;47.410;9.730;2023-07-13T14:22:51;24.60;96.70
47482;DHT22;33219;47.410;9.730;2023-07-13T14:25:20;24.50;96.80
47482;DHT22;33219;47.410;9.730;2023-07-13T14:27:51;24.50;97.10
47482;DHT22;33219;47.410;9.730;2023-07-13T14:30:20;24.50;96.60
47482;DHT22;33219;47.410;9.730;2023-07-13T14:32:48;24.60;96.80
47482;DHT22;33219;47.410;9.730;2023-07-13T14:35:21;24.70;96.60
47482;DHT22;33219;47.410;9.730;2023-07-13T14:37:47;24.80;97.30
47482;DHT22;33219;47.410;9.730;2023-07-13T14:40:21;24.70;97.10
47482;DHT22;33219;47.410;9.730;2023-07-13T14:42:45;24.80;97.00
47482;DHT22;33219;47.410;9.730;2023-07-13T14:45:18;24.40;96.70
47482;DHT22;33219;47.410;9.730;2023-07-13T14:47:47;24.40;96.50
47482;DHT22;33219;47.410;9.730;2023-07-13T14:50:17;24.20;96.60
47482;DHT22;33219;47.410;9.730;2023-07-13T14:52:45;24.20;96.70
47482;DHT22;33219;47.410;9.730;2023-07-13T14:55:15;24.20;96.40
47482;DHT22;33219;47.410;9.730;2023-07-13T14:57:45;24.30;96.20
47482;DHT22;33219;47.410;9.730;2023-07-13T15:00:18;24.30;96.30
47482;DHT22;33219;47.410;9.730;2023-07-13T15:02:52;24.40;96.30
47482;DHT22;33219;47.410;9.730;2023-07-13T15:05:23;24.60;95.90
47482;DHT22;33219;47.410;9.730;2023-07-13T15:07:52;24.60;95.10
47482;DHT22;33219;47.410;9.730;2023-07-13T15:10:25;24.60;94.80
47482;DHT22;33219;47.410;9.730;2023-07-13T15:12:56;24.60;94.90
47482;DHT22;33219;47.410;9.730;2023-07-13T15:15:22;24.60;94.30
47482;DHT22;33219;47.410;9.730;2023-07-13T15:17:51;24.50;94.30
47482;DHT22;33219;47.410;9.730;2023-07-13T15:20:28;24.40;94.60
47482;DHT22;33219;47.410;9.730;2023-07-13T15:22:55;24.50;94.90
47482;DHT22;33219;47.410;9.730;2023-07-13T15:25:25;24.70;95.80
47482;DHT22;33219;47.410;9.730;2023-07-13T15:27:54;24.60;97.00
47482;DHT22;33219;47.410;9.730;2023-07-13T15:30:25;24.50;96.80
47482;DHT22;33219;47.410;9.730;2023-07-13T15:33:00;24.40;96.60
47482;DHT22;33219;47.410;9.730;2023-07-13T15:35:29;24.20;96.60
47482;DHT22;33219;47.410;9.730;2023-07-13T15:37:57;24.10;96.70
47482;DHT22;33219;47.410;9.730;2023-07-13T15:40:24;24.00;96.70
47482;DHT22;33219;47.410;9.730;2023-07-13T15:42:52;23.90;96.30
47482;DHT22;33219;47.410;9.730;2023-07-13T15:45:22;23.90;96.50
47482;DHT22;33219;47.410;9.730;2023-07-13T15:47:52;23.90;96.10
47482;DHT22;33219;47.410;9.730;2023-07-13T15:50:22;23.90;95.80
47482;DHT22;33219;47.410;9.730;2023-07-13T15:52:52;23.90;96.20
47482;DHT22;33219;47.410;9.730;2023-07-13T15:55:21;24.10;96.50
47482;DHT22;33219;47.410;9.730;2023-07-13T15:57:51;24.10;96.60
47482;DHT22;33219;47.410;9.730;2023-07-13T16:00:27;24.10;96.60
47482;DHT22;33219;47.410;9.730;2023-07-13T16:02:54;24.10;95.60
47482;DHT22;33219;47.410;9.730;2023-07-13T16:05:22;24.20;95.40
47482;DHT22;33219;47.410;9.730;2023-07-13T16:07:52;24.00;96.00
47482;DHT22;33219;47.410;9.730;2023-07-13T16:10:27;24.00;96.60
47482;DHT22;33219;47.410;9.730;2023-07-13T16:12:54;23.90;95.80
47482;DHT22;33219;47.410;9.730;2023-07-13T16:15:21;23.90;96.50
47482;DHT22;33219;47.410;9.730;2023-07-13T16:17:49;23.90;96.90